BML weather

Berlin Regional Airport
Berlin, New Hampshire, United States

Public forecast

Using degrees Fahrenheit for public forecast. Weather courtesy of forecast.io.

METAR (pilot weather report)

Retrieved 2019/06/17 09:25 UTC (0 seconds ago):

KBML 170925Z AUTO 00000KT M1/4SM FG VV001 06/04 A2994 RMK AO2 T00560044

TAF (pilot weather forecast)

Closest forecast is Mount Washington Regional Airport, 20.1 nm (37.3 km) SW. Retrieved 2019/06/17 06:22 UTC (3 hours ago):

TAF KHIE 170520Z 1706/1806 00000KT P6SM SCT250 FM170800 00000KT 3SM BR BKN250 FM171100 30005KT P6SM FEW250